Time;durP1;ratioP1;P1;durP2;ratioP2;P2;SDS_P1;SDS_P2;PMS_P1;PMS_P2;Temp;Humidity;BMP_temperature;BMP_pressure;BME280_temperature;BME280_humidity;BME280_pressure;Samples;Min_cycle;Max_cycle;Signal;HPM_P1;HPM_P2
2024/02/07 00:01:24;;;;;;;36.47;27.42;;;;;;;10.69;100.00;97449.47;5058745;28;20568;-63
2024/02/07 00:03:50;;;;;;;42.13;33.03;;;;;;;10.27;100.00;97447.34;5057412;28;20016;-64
2024/02/07 00:06:16;;;;;;;51.00;23.40;;;;;;;10.00;100.00;97455.44;5056551;28;20032;-64
2024/02/07 00:08:42;;;;;;;268.05;213.80;;;;;;;10.95;100.00;97443.06;5060501;28;20024;-62
2024/02/07 00:11:07;;;;;;;156.77;136.63;;;;;;;10.92;100.00;97445.75;5050521;28;20045;-64
2024/02/07 00:13:33;;;;;;;48.85;30.98;;;;;;;10.18;100.00;97432.72;5037930;28;20013;-64
2024/02/07 00:15:59;;;;;;;32.45;14.38;;;;;;;9.71;100.00;97416.72;5044178;28;20025;-62
2024/02/07 00:18:24;;;;;;;156.68;143.23;;;;;;;10.20;100.00;97419.72;5055969;28;20067;-63
2024/02/07 00:20:50;;;;;;;213.65;179.75;;;;;;;10.65;100.00;97425.28;5058158;28;20119;-61
2024/02/07 00:23:15;;;;;;;156.40;141.20;;;;;;;11.43;100.00;97423.31;5057945;28;20130;-63
2024/02/07 00:25:41;;;;;;;195.40;176.65;;;;;;;11.03;100.00;97423.03;5059630;28;20147;-62
2024/02/07 00:28:07;;;;;;;66.18;27.30;;;;;;;10.99;100.00;97416.13;5057137;28;20043;-61
2024/02/07 00:30:32;;;;;;;57.03;51.28;;;;;;;10.54;100.00;97419.31;5056847;28;20400;-63
2024/02/07 00:32:57;;;;;;;82.25;73.53;;;;;;;10.32;100.00;97422.16;5059664;28;20031;-61
2024/02/07 00:35:23;;;;;;;34.40;14.32;;;;;;;10.65;100.00;97414.03;5057698;28;20051;-63
2024/02/07 00:37:48;;;;;;;115.68;94.10;;;;;;;11.16;100.00;97413.31;5059529;28;20101;-61
2024/02/07 00:40:14;;;;;;;299.23;266.83;;;;;;;11.68;100.00;97417.69;5056765;28;20085;-62
2024/02/07 00:42:39;;;;;;;220.98;199.77;;;;;;;11.81;100.00;97424.41;5057442;28;20147;-62
2024/02/07 00:45:05;;;;;;;132.48;116.75;;;;;;;12.59;100.00;97420.38;5056535;28;20123;-62
2024/02/07 00:47:30;;;;;;;160.98;145.13;;;;;;;11.77;100.00;97407.09;5057994;28;20060;-61
2024/02/07 00:49:56;;;;;;;80.05;67.82;;;;;;;11.26;100.00;97411.44;5054960;28;20976;-62
2024/02/07 00:52:22;;;;;;;59.95;49.95;;;;;;;11.76;100.00;97408.00;5056502;28;20033;-64
2024/02/07 00:54:47;;;;;;;29.00;13.45;;;;;;;12.30;100.00;97418.34;5057615;28;20329;-63
2024/02/07 00:57:13;;;;;;;76.55;30.40;;;;;;;11.11;100.00;97409.03;5056516;28;20046;-64
2024/02/07 00:59:38;;;;;;;159.95;143.35;;;;;;;11.35;100.00;97401.75;5060243;28;20026;-63
2024/02/07 01:02:04;;;;;;;196.25;176.85;;;;;;;11.68;100.00;97404.66;5056735;28;20040;-63
2024/02/07 01:04:29;;;;;;;241.80;162.05;;;;;;;10.93;100.00;97411.91;5054970;28;20454;-65
2024/02/07 01:06:55;;;;;;;216.23;194.93;;;;;;;10.64;100.00;97407.06;5055634;28;20060;-63
2024/02/07 01:09:21;;;;;;;93.85;52.78;;;;;;;11.75;100.00;97414.09;5051419;28;20471;-64
2024/02/07 01:11:47;;;;;;;170.95;145.68;;;;;;;12.58;100.00;97403.00;5051861;28;20124;-62
2024/02/07 01:14:13;;;;;;;171.68;142.48;;;;;;;11.00;100.00;97409.19;5053791;28;20550;-64
2024/02/07 01:16:38;;;;;;;52.95;25.65;;;;;;;11.16;100.00;97399.41;5053898;28;20039;-64
2024/02/07 01:19:04;;;;;;;174.35;136.52;;;;;;;10.75;100.00;97392.19;5052476;28;20055;-61
2024/02/07 01:21:30;;;;;;;168.85;126.13;;;;;;;11.59;100.00;97396.13;5051515;28;20048;-61
2024/02/07 01:23:55;;;;;;;73.63;51.92;;;;;;;10.71;100.00;97397.44;5054338;28;20036;-62
2024/02/07 01:26:21;;;;;;;131.45;93.40;;;;;;;10.83;100.00;97396.44;5051643;28;20210;-61
2024/02/07 01:28:47;;;;;;;49.05;29.70;;;;;;;10.87;100.00;97395.53;5052830;28;20041;-63
2024/02/07 01:31:13;;;;;;;67.15;42.08;;;;;;;10.62;100.00;97395.84;5050374;28;20199;-63
2024/02/07 01:33:38;;;;;;;200.48;117.75;;;;;;;11.92;100.00;97394.72;5052335;28;20490;-62
2024/02/07 01:36:06;;;;;;;338.27;302.33;;;;;;;12.10;100.00;97381.34;5051465;28;20037;-64
2024/02/07 01:38:32;;;;;;;78.88;49.97;;;;;;;12.31;100.00;97391.38;5053163;28;20032;-62
2024/02/07 01:40:57;;;;;;;238.70;212.73;;;;;;;11.83;100.00;97388.78;5051574;28;20424;-62
2024/02/07 01:43:28;;;;;;;341.95;307.38;;;;;;;11.68;100.00;97389.03;5051275;28;20068;-62
2024/02/07 01:45:54;;;;;;;52.08;16.77;;;;;;;11.11;100.00;97385.63;5051630;28;20509;-64
2024/02/07 01:48:19;;;;;;;94.85;54.83;;;;;;;10.96;100.00;97381.50;5052330;28;20649;-60
2024/02/07 01:50:45;;;;;;;54.10;37.17;;;;;;;11.24;100.00;97368.94;5052142;28;20044;-60
2024/02/07 01:53:11;;;;;;;108.72;94.78;;;;;;;11.40;100.00;97373.91;5051970;28;20033;-61
2024/02/07 01:55:36;;;;;;;225.93;130.48;;;;;;;11.77;100.00;97360.22;5051553;28;20220;-61
2024/02/07 01:58:05;;;;;;;156.02;136.18;;;;;;;11.29;100.00;97353.25;5052051;28;20111;-63
2024/02/07 02:00:31;;;;;;;92.43;77.75;;;;;;;10.57;100.00;97340.44;5047481;28;20493;-61
2024/02/07 02:02:58;;;;;;;44.08;13.73;;;;;;;10.75;100.00;97327.19;5051566;28;20024;-60
2024/02/07 02:05:23;;;;;;;127.20;95.50;;;;;;;10.34;100.00;97319.03;5052353;28;20278;-61
2024/02/07 02:07:50;;;;;;;54.25;15.88;;;;;;;11.15;100.00;97322.22;5053735;28;20028;-62
2024/02/07 02:10:15;;;;;;;53.72;15.27;;;;;;;10.65;100.00;97325.59;5049682;28;20356;-61
2024/02/07 02:12:44;;;;;;;62.90;46.97;;;;;;;11.18;100.00;97317.81;5053821;28;20177;-60
2024/02/07 02:15:10;;;;;;;121.47;88.70;;;;;;;11.13;100.00;97316.22;5052059;28;20415;-60
2024/02/07 02:17:36;;;;;;;81.28;54.30;;;;;;;10.91;100.00;97308.75;5053349;28;20023;-62
2024/02/07 02:20:04;;;;;;;268.85;193.13;;;;;;;11.01;100.00;97296.41;5050750;28;20025;-62
2024/02/07 02:23:00;;;;;;;126.03;111.88;;;;;;;10.35;100.00;97297.34;5052069;28;20047;-60
2024/02/07 02:25:57;;;;;;;137.57;106.10;;;;;;;10.76;100.00;97300.28;5050595;28;20527;-61
2024/02/07 02:29:04;;;;;;;178.50;130.35;;;;;;;11.77;100.00;97278.63;5042287;28;20040;-64
2024/02/07 02:31:30;;;;;;;94.15;82.38;;;;;;;10.83;100.00;97280.22;5050788;28;20032;-63
2024/02/07 02:33:56;;;;;;;250.38;198.20;;;;;;;10.69;100.00;97267.44;5051837;28;20021;-62
2024/02/07 02:36:23;;;;;;;204.25;168.95;;;;;;;10.84;100.00;97271.53;5050658;28;20040;-60
2024/02/07 02:38:49;;;;;;;172.25;154.00;;;;;;;11.33;100.00;97254.22;5051052;28;20520;-61
2024/02/07 02:41:14;;;;;;;210.35;176.82;;;;;;;11.02;100.00;97251.34;5049359;28;20069;-64
2024/02/07 02:43:40;;;;;;;65.05;35.33;;;;;;;10.67;100.00;97240.59;5052337;28;20075;-63
2024/02/07 02:46:07;;;;;;;48.38;18.20;;;;;;;10.37;100.00;97248.81;5052042;28;20037;-62
2024/02/07 02:48:32;;;;;;;43.17;18.27;;;;;;;10.36;100.00;97233.25;5050755;28;20024;-61
2024/02/07 02:50:59;;;;;;;130.25;96.03;;;;;;;10.09;100.00;97233.59;5050541;28;20036;-62
2024/02/07 02:53:24;;;;;;;226.68;175.70;;;;;;;11.54;100.00;97226.06;5050508;28;20352;-64
2024/02/07 02:55:50;;;;;;;41.50;18.67;;;;;;;10.66;100.00;97236.28;5051498;28;20044;-62
2024/02/07 02:58:15;;;;;;;65.18;15.30;;;;;;;10.43;100.00;97229.66;5052004;28;20113;-64
2024/02/07 03:00:46;;;;;;;112.88;83.82;;;;;;;10.54;100.00;97222.59;5052443;28;20249;-62
2024/02/07 03:03:12;;;;;;;66.88;56.00;;;;;;;10.10;100.00;97229.28;5052298;28;20237;-63
2024/02/07 03:05:45;;;;;;;42.15;11.07;;;;;;;10.51;100.00;97217.44;5054913;28;20044;-63
2024/02/07 03:10:38;;;;;;;49.22;32.03;;;;;;;10.60;100.00;97210.38;5057039;28;20037;-61
2024/02/07 03:13:04;;;;;;;241.80;215.13;;;;;;;10.59;100.00;97201.72;5055631;28;20024;-61
2024/02/07 03:15:30;;;;;;;75.30;30.70;;;;;;;10.73;100.00;97214.50;5052999;28;20056;-62
2024/02/07 03:17:56;;;;;;;155.55;137.27;;;;;;;10.62;100.00;97209.47;5055372;28;20027;-62
2024/02/07 03:20:22;;;;;;;284.52;243.93;;;;;;;11.26;100.00;97205.78;5053082;28;20025;-64
2024/02/07 03:22:49;;;;;;;250.15;215.57;;;;;;;11.37;100.00;97200.38;5055501;28;20078;-63
2024/02/07 03:25:16;;;;;;;44.03;15.45;;;;;;;11.44;100.00;97193.31;5053213;28;20583;-63
2024/02/07 03:27:46;;;;;;;282.50;196.95;;;;;;;11.24;100.00;97193.69;5054967;28;20115;-65
2024/02/07 03:30:15;;;;;;;114.72;98.50;;;;;;;11.01;100.00;97194.94;5055354;28;20040;-63
2024/02/07 03:32:41;;;;;;;161.45;133.35;;;;;;;11.35;100.00;97198.69;5054735;28;20531;-64
2024/02/07 03:35:06;;;;;;;43.42;20.25;;;;;;;11.48;100.00;97189.75;5055763;28;20044;-64
2024/02/07 03:37:32;;;;;;;172.13;130.95;;;;;;;10.69;100.00;97194.63;5053765;28;20457;-60
2024/02/07 03:39:57;;;;;;;324.15;291.02;;;;;;;11.41;100.00;97183.81;5055957;28;20051;-63
2024/02/07 03:42:22;;;;;;;62.97;28.92;;;;;;;11.74;100.00;97193.56;5055247;28;20051;-62
2024/02/07 03:44:58;;;;;;;115.53;103.82;;;;;;;10.59;100.00;97185.25;5056518;28;20419;-64
2024/02/07 03:47:24;;;;;;;164.15;108.10;;;;;;;11.01;100.00;97192.34;5052225;28;20298;-61
2024/02/07 03:49:50;;;;;;;37.45;11.30;;;;;;;11.04;100.00;97180.16;5055088;28;20017;-62
2024/02/07 03:52:17;;;;;;;48.60;20.02;;;;;;;10.55;100.00;97180.09;5051299;28;20052;-61
2024/02/07 03:54:51;;;;;;;80.47;65.22;;;;;;;11.51;100.00;97179.25;5054884;28;20028;-64
2024/02/07 03:57:20;;;;;;;68.80;51.60;;;;;;;11.10;100.00;97186.97;5053241;28;20688;-60
2024/02/07 03:59:49;;;;;;;58.33;28.08;;;;;;;11.38;100.00;97189.06;5053756;28;20486;-61
2024/02/07 04:02:21;;;;;;;164.88;147.15;;;;;;;11.06;100.00;97188.78;5056188;28;20076;-62
2024/02/07 04:04:50;;;;;;;51.67;23.30;;;;;;;10.85;100.00;97178.75;5054023;28;20169;-61
2024/02/07 04:07:17;;;;;;;177.95;161.25;;;;;;;10.92;100.00;97164.78;5053406;28;20127;-59
2024/02/07 04:09:43;;;;;;;181.95;157.65;;;;;;;10.97;100.00;97181.16;5053689;28;20782;-62
2024/02/07 05:17:08;;;;;;;275.13;249.70;;;;;;;12.57;100.00;97113.50;5054946;28;20071;-63
2024/02/07 05:19:36;;;;;;;156.55;135.77;;;;;;;13.13;100.00;97105.06;5052556;28;20099;-63
2024/02/07 05:22:02;;;;;;;187.98;167.70;;;;;;;13.46;100.00;97088.47;5051991;28;20100;-61
2024/02/07 05:24:28;;;;;;;242.52;217.63;;;;;;;13.10;100.00;97096.47;5051383;28;20538;-61
2024/02/07 05:26:54;;;;;;;132.98;109.38;;;;;;;12.73;100.00;97098.31;5052135;28;20630;-65
2024/02/07 05:29:19;;;;;;;286.08;239.75;;;;;;;14.35;100.00;97090.13;5053712;28;20556;-63
2024/02/07 05:31:44;;;;;;;60.85;36.40;;;;;;;12.17;100.00;97091.91;5049622;28;20385;-63
2024/02/07 05:34:11;;;;;;;117.32;95.97;;;;;;;12.93;100.00;97089.09;5054648;28;20020;-63
2024/02/07 05:36:37;;;;;;;120.53;105.57;;;;;;;12.29;100.00;97085.53;5052078;28;20043;-62
2024/02/07 05:39:02;;;;;;;61.58;29.60;;;;;;;13.47;100.00;97092.78;5052650;28;20020;-63
2024/02/07 05:41:27;;;;;;;317.65;266.55;;;;;;;13.56;100.00;97086.47;5051091;28;20044;-64
2024/02/07 05:43:53;;;;;;;361.95;265.52;;;;;;;13.13;100.00;97092.00;5052486;28;20031;-63
2024/02/07 05:46:19;;;;;;;52.13;29.75;;;;;;;12.16;100.00;97087.56;5051277;28;20045;-64
2024/02/07 05:48:45;;;;;;;205.45;165.48;;;;;;;12.46;100.00;97077.25;5051362;28;20498;-63
2024/02/07 05:51:20;;;;;;;40.55;15.45;;;;;;;12.15;100.00;97080.66;5051342;28;20520;-64
2024/02/07 05:53:46;;;;;;;190.35;170.05;;;;;;;12.74;100.00;97081.78;5051075;28;20012;-61
2024/02/07 05:56:12;;;;;;;384.80;336.90;;;;;;;12.05;100.00;97069.53;5051076;28;20051;-65
2024/02/07 05:58:39;;;;;;;113.07;90.22;;;;;;;12.63;100.00;97080.28;5049621;28;20070;-63
2024/02/07 06:01:08;;;;;;;381.73;340.55;;;;;;;13.09;100.00;97072.13;5052433;28;20037;-63
2024/02/07 06:03:34;;;;;;;64.55;35.45;;;;;;;12.74;100.00;97074.78;5049626;28;20652;-62
2024/02/07 06:05:59;;;;;;;184.82;165.82;;;;;;;13.32;100.00;97049.69;5049512;28;20590;-61
2024/02/07 06:08:25;;;;;;;34.92;13.93;;;;;;;13.53;100.00;97044.75;5052298;28;20261;-63
2024/02/07 06:10:50;;;;;;;262.63;186.55;;;;;;;13.10;100.00;97050.31;5051900;28;20060;-64
2024/02/07 06:13:15;;;;;;;67.45;44.78;;;;;;;13.19;100.00;97035.28;5053120;28;20524;-63
2024/02/07 06:15:41;;;;;;;51.20;16.48;;;;;;;13.01;100.00;97046.25;5050845;28;20261;-66
2024/02/07 06:18:07;;;;;;;85.50;69.40;;;;;;;12.72;100.00;97045.28;5051109;28;20040;-65
2024/02/07 06:20:32;;;;;;;102.13;78.03;;;;;;;12.31;100.00;97035.06;5050651;28;20040;-64
2024/02/07 06:22:57;;;;;;;309.67;168.02;;;;;;;13.48;100.00;97038.84;5054164;28;20025;-63
2024/02/07 06:25:23;;;;;;;171.23;127.57;;;;;;;13.17;100.00;97030.09;5052217;28;20055;-62
2024/02/07 06:27:48;;;;;;;56.45;40.45;;;;;;;13.62;100.00;97049.69;5049864;28;20124;-61
2024/02/07 06:30:14;;;;;;;160.57;145.07;;;;;;;12.74;100.00;97047.84;5053683;28;20024;-62
2024/02/07 06:32:39;;;;;;;59.70;26.45;;;;;;;12.69;100.00;97034.94;5049977;28;20033;-62
2024/02/07 06:35:04;;;;;;;164.25;127.07;;;;;;;12.60;100.00;97033.44;5052206;28;20510;-60
2024/02/07 06:37:30;;;;;;;164.48;146.02;;;;;;;12.94;100.00;97043.81;5053053;28;20408;-63
2024/02/07 06:39:55;;;;;;;84.38;68.32;;;;;;;12.83;100.00;97034.56;5054064;28;20044;-61
2024/02/07 06:42:21;;;;;;;265.80;238.43;;;;;;;11.89;100.00;97032.59;5053278;28;20048;-60
2024/02/07 06:44:46;;;;;;;165.35;138.23;;;;;;;12.74;100.00;97040.03;5056255;28;20769;-59
2024/02/07 06:47:11;;;;;;;161.95;94.88;;;;;;;13.51;100.00;97044.81;5052760;28;20052;-60
2024/02/07 06:49:37;;;;;;;164.95;84.57;;;;;;;14.21;100.00;97049.59;5054240;28;20016;-57
2024/02/07 06:52:02;;;;;;;54.85;15.52;;;;;;;12.41;100.00;97058.28;5054514;28;20039;-60
2024/02/07 06:54:28;;;;;;;214.15;157.40;;;;;;;12.02;100.00;97030.56;5055227;28;20266;-60
2024/02/07 06:56:53;;;;;;;62.60;38.60;;;;;;;11.89;100.00;97048.22;5055073;28;20064;-60
2024/02/07 06:59:19;;;;;;;50.40;23.85;;;;;;;9.62;100.00;97038.63;5055441;28;20420;-58
2024/02/07 07:01:45;;;;;;;88.72;31.52;;;;;;;9.10;100.00;97041.91;5051113;28;20035;-61
2024/02/07 07:04:10;;;;;;;60.58;42.80;;;;;;;8.97;100.00;97037.75;5056525;28;20447;-60
2024/02/07 07:06:36;;;;;;;67.03;16.35;;;;;;;9.36;100.00;97037.25;5054287;28;20060;-61
2024/02/07 07:09:01;;;;;;;109.82;63.05;;;;;;;9.53;100.00;97037.00;5055622;28;20474;-60
2024/02/07 07:11:27;;;;;;;122.25;91.85;;;;;;;9.48;100.00;97038.81;5055197;28;20143;-58
2024/02/07 07:13:57;;;;;;;110.75;99.15;;;;;;;9.56;100.00;97036.09;5055081;28;20016;-59
2024/02/07 07:16:22;;;;;;;67.45;39.03;;;;;;;9.76;100.00;97038.41;5053690;28;20047;-59
2024/02/07 07:18:52;;;;;;;47.35;23.60;;;;;;;9.75;100.00;97041.88;5055180;28;20029;-58
2024/02/07 07:21:18;;;;;;;116.55;100.72;;;;;;;9.93;100.00;97037.28;5055162;28;20033;-58
2024/02/07 07:23:43;;;;;;;185.68;146.05;;;;;;;9.98;100.00;97027.69;5046690;28;20082;-59
2024/02/07 07:26:08;;;;;;;64.63;43.72;;;;;;;9.82;100.00;97040.03;5055209;28;20028;-60
2024/02/07 07:28:33;;;;;;;90.50;49.53;;;;;;;9.75;100.00;97037.56;5053620;28;20494;-58
2024/02/07 07:30:59;;;;;;;211.50;187.70;;;;;;;9.75;100.00;97029.78;5054703;28;20059;-59
2024/02/07 07:33:24;;;;;;;46.63;28.98;;;;;;;9.73;100.00;97036.72;5056910;28;20085;-57
2024/02/07 07:35:50;;;;;;;370.83;238.10;;;;;;;10.53;100.00;97018.09;5053038;28;20041;-59
2024/02/07 07:38:15;;;;;;;227.95;203.93;;;;;;;11.07;100.00;97039.56;5054676;28;20205;-59
2024/02/07 07:40:41;;;;;;;103.28;75.03;;;;;;;10.78;100.00;97033.22;5054106;28;20034;-59
2024/02/07 07:43:07;;;;;;;102.60;84.18;;;;;;;10.85;100.00;97038.28;5053856;28;20230;-59
2024/02/07 07:45:32;;;;;;;111.60;84.72;;;;;;;11.65;100.00;97045.31;5050293;28;20033;-59
2024/02/07 07:47:58;;;;;;;109.65;81.22;;;;;;;11.68;100.00;97030.47;5053968;28;20025;-60
2024/02/07 07:50:23;;;;;;;180.23;143.85;;;;;;;11.50;100.00;97038.69;5052556;28;20047;-59
2024/02/07 07:52:49;;;;;;;119.68;90.28;;;;;;;11.31;100.00;97052.97;5052394;28;22314;-60
2024/02/07 07:55:15;;;;;;;166.38;149.48;;;;;;;10.92;100.00;97037.28;5055906;28;20024;-61
2024/02/07 07:57:41;;;;;;;72.78;15.88;;;;;;;11.84;100.00;97030.09;5052537;28;20016;-59
2024/02/07 08:00:07;;;;;;;171.57;138.93;;;;;;;11.87;100.00;97040.44;5054590;28;20048;-58
2024/02/07 08:02:32;;;;;;;322.10;239.80;;;;;;;11.77;100.00;97042.38;5051903;28;20041;-61
2024/02/07 08:04:57;;;;;;;221.35;179.52;;;;;;;11.69;100.00;97036.53;5053701;28;20377;-59
2024/02/07 08:07:23;;;;;;;36.92;15.52;;;;;;;11.26;100.00;97038.34;5052688;28;20040;-58
2024/02/07 08:09:48;;;;;;;142.23;118.93;;;;;;;11.91;100.00;97036.03;5051449;28;20020;-59
2024/02/07 08:12:14;;;;;;;301.88;274.60;;;;;;;11.80;100.00;97038.88;5053885;28;20040;-61
2024/02/07 08:14:40;;;;;;;195.90;168.77;;;;;;;12.00;100.00;97030.59;5054000;28;20036;-61
2024/02/07 08:17:06;;;;;;;105.13;81.28;;;;;;;12.16;100.00;97020.66;5051827;28;20043;-59
2024/02/07 08:19:31;;;;;;;60.25;33.70;;;;;;;12.19;100.00;97017.97;5051667;28;20686;-58
2024/02/07 08:21:57;;;;;;;61.15;28.95;;;;;;;12.28;100.00;97019.47;5053044;28;20068;-60
2024/02/07 08:24:22;;;;;;;261.98;234.93;;;;;;;11.78;100.00;97018.06;5054550;28;20026;-60
2024/02/07 08:26:47;;;;;;;107.70;70.30;;;;;;;11.79;100.00;97019.78;5052509;28;20570;-59
2024/02/07 08:29:13;;;;;;;234.75;207.55;;;;;;;12.02;100.00;97015.75;5054583;28;20034;-59
2024/02/07 08:31:39;;;;;;;227.57;198.60;;;;;;;12.24;100.00;97029.13;5049611;28;20223;-59
2024/02/07 08:34:04;;;;;;;105.65;91.95;;;;;;;11.97;100.00;97013.28;5053850;28;20347;-58
2024/02/07 08:36:29;;;;;;;123.97;98.05;;;;;;;12.08;100.00;97023.47;5052340;28;20052;-61
2024/02/07 08:38:55;;;;;;;56.95;36.45;;;;;;;11.89;100.00;97027.38;5051601;28;20029;-60
2024/02/07 08:41:20;;;;;;;157.23;104.85;;;;;;;11.56;100.00;97023.78;5054235;28;20042;-58
2024/02/07 08:43:46;;;;;;;133.25;118.00;;;;;;;11.78;100.00;97012.88;5052772;28;20028;-59
2024/02/07 08:46:11;;;;;;;151.48;119.70;;;;;;;11.41;100.00;97016.31;5054215;28;20170;-58
2024/02/07 08:48:37;;;;;;;128.55;115.28;;;;;;;12.00;100.00;97007.13;5052119;28;20246;-61
2024/02/07 08:51:03;;;;;;;65.35;45.00;;;;;;;12.49;100.00;97018.06;5050332;28;20037;-60
2024/02/07 08:53:29;;;;;;;272.42;246.02;;;;;;;12.82;100.00;97022.41;5054620;28;20334;-60
2024/02/07 08:55:57;;;;;;;133.32;119.35;;;;;;;12.02;100.00;97007.09;5053288;28;20106;-58
2024/02/07 08:58:22;;;;;;;278.73;249.82;;;;;;;11.57;100.00;97016.81;5054677;28;20485;-61
2024/02/07 09:00:49;;;;;;;72.78;15.18;;;;;;;11.29;100.00;97007.88;5051621;28;20379;-60
2024/02/07 09:03:14;;;;;;;53.90;38.22;;;;;;;11.39;100.00;97018.13;5050353;28;20028;-59
2024/02/07 09:05:39;;;;;;;109.53;77.20;;;;;;;11.70;100.00;97012.19;5055600;28;20036;-58
2024/02/07 09:08:05;;;;;;;38.28;11.88;;;;;;;11.18;100.00;97013.31;5055773;28;20320;-59
2024/02/07 09:10:30;;;;;;;83.28;74.57;;;;;;;10.91;100.00;97009.56;5055751;28;20029;-61
2024/02/07 09:12:56;;;;;;;175.75;155.05;;;;;;;11.06;100.00;97001.44;5056826;28;20032;-59
2024/02/07 09:15:21;;;;;;;263.55;225.85;;;;;;;11.98;100.00;97011.50;5057020;28;20035;-58
2024/02/07 09:17:46;;;;;;;144.68;103.03;;;;;;;11.06;100.00;97011.84;5056660;28;20017;-59
2024/02/07 09:20:12;;;;;;;52.53;36.00;;;;;;;10.80;100.00;97010.63;5055462;28;20039;-60
2024/02/07 09:22:40;;;;;;;77.20;51.38;;;;;;;11.01;100.00;97005.88;5055202;28;20020;-62
2024/02/07 09:25:06;;;;;;;53.47;38.75;;;;;;;11.07;100.00;97003.13;5056127;28;20021;-60
2024/02/07 09:27:31;;;;;;;156.63;133.07;;;;;;;10.69;100.00;96996.97;5057834;28;20056;-60
2024/02/07 09:29:57;;;;;;;338.23;293.50;;;;;;;10.55;100.00;97007.66;5054610;28;20039;-59
2024/02/07 09:32:22;;;;;;;116.15;105.20;;;;;;;10.98;100.00;97000.72;5058501;28;20031;-58
2024/02/07 09:34:48;;;;;;;186.98;166.65;;;;;;;10.38;100.00;96998.41;5055398;28;20074;-58
2024/02/07 09:37:13;;;;;;;242.00;216.70;;;;;;;11.30;100.00;96993.13;5055824;28;20074;-60
2024/02/07 09:39:38;;;;;;;41.40;16.73;;;;;;;10.75;100.00;96996.00;5056490;28;20127;-60
2024/02/07 09:42:07;;;;;;;142.85;118.70;;;;;;;11.39;100.00;96998.13;5055827;28;20040;-58
2024/02/07 09:44:35;;;;;;;94.53;78.40;;;;;;;11.35;100.00;96999.09;5057882;28;20668;-60
2024/02/07 09:47:00;;;;;;;101.13;90.28;;;;;;;10.72;100.00;96990.88;5055483;28;20151;-61
2024/02/07 09:49:28;;;;;;;52.10;25.52;;;;;;;11.22;100.00;96989.84;5057377;28;20115;-61
2024/02/07 09:51:54;;;;;;;127.18;98.65;;;;;;;11.10;100.00;96991.81;5054568;28;20029;-60
2024/02/07 09:54:19;;;;;;;181.45;163.10;;;;;;;11.19;100.00;96986.44;5056950;28;20074;-59
2024/02/07 09:56:46;;;;;;;82.55;68.38;;;;;;;11.07;100.00;96984.09;5056303;28;20028;-61
2024/02/07 09:59:13;;;;;;;247.52;188.15;;;;;;;10.96;100.00;96980.84;5055224;28;20105;-61
2024/02/07 10:01:39;;;;;;;64.05;39.95;;;;;;;8.76;100.00;96984.44;5053060;28;20025;-59
2024/02/07 10:04:12;;;;;;;124.18;111.35;;;;;;;8.02;100.00;96979.16;5056950;28;20032;-58
2024/02/07 10:06:38;;;;;;;52.70;40.88;;;;;;;7.89;100.00;96986.16;5056996;28;20059;-57
2024/02/07 10:09:07;;;;;;;190.68;170.55;;;;;;;7.81;100.00;96986.22;5053183;28;20108;-61
2024/02/07 10:11:33;;;;;;;176.82;160.05;;;;;;;7.72;100.00;96981.97;5058270;28;20123;-60
2024/02/07 10:13:59;;;;;;;111.85;100.10;;;;;;;7.68;100.00;96991.50;5058906;28;20540;-59
2024/02/07 10:16:27;;;;;;;69.43;55.08;;;;;;;7.75;100.00;96991.44;5051064;28;20025;-59
2024/02/07 10:18:52;;;;;;;394.20;336.48;;;;;;;7.77;100.00;96982.81;5041145;28;20152;-60
2024/02/07 10:21:18;;;;;;;86.80;66.55;;;;;;;7.86;100.00;96979.28;5042943;28;20124;-60
2024/02/07 10:23:43;;;;;;;535.30;404.85;;;;;;;8.05;100.00;96973.91;5041855;28;20036;-59
2024/02/07 10:26:10;;;;;;;69.35;55.08;;;;;;;8.05;100.00;96984.28;5042443;28;20055;-60
2024/02/07 10:28:36;;;;;;;80.53;51.53;;;;;;;8.02;100.00;96973.97;5043187;28;20021;-60
2024/02/07 10:31:03;;;;;;;173.50;138.93;;;;;;;8.28;100.00;96978.88;5040827;28;20033;-59
2024/02/07 10:33:36;;;;;;;215.02;182.70;;;;;;;8.76;100.00;96979.25;5041227;28;20078;-59
2024/02/07 10:36:02;;;;;;;214.43;174.35;;;;;;;8.94;100.00;96967.75;5048149;28;20119;-60
2024/02/07 10:38:29;;;;;;;52.97;40.72;;;;;;;9.15;100.00;96979.59;5060907;28;20033;-60
2024/02/07 10:40:55;;;;;;;116.28;59.05;;;;;;;9.15;100.00;96973.53;5057913;28;20435;-59
2024/02/07 10:43:24;;;;;;;191.55;164.30;;;;;;;9.28;100.00;96977.66;5060671;28;20484;-59
2024/02/07 10:46:00;;;;;;;77.60;51.80;;;;;;;9.62;100.00;96968.53;5056491;28;20051;-60
2024/02/07 10:48:28;;;;;;;46.35;20.58;;;;;;;9.61;100.00;96969.41;5059322;28;20033;-58
2024/02/07 10:50:55;;;;;;;329.80;284.67;;;;;;;9.60;100.00;96975.47;5056813;28;20043;-60
2024/02/07 10:53:21;;;;;;;52.20;23.40;;;;;;;9.62;100.00;96963.34;5058795;28;20031;-61
2024/02/07 10:55:46;;;;;;;248.75;202.80;;;;;;;9.72;100.00;96971.81;5056510;28;20071;-59
2024/02/07 10:58:15;;;;;;;69.88;61.72;;;;;;;10.08;100.00;96968.63;5059140;28;20020;-61
2024/02/07 11:00:42;;;;;;;87.00;65.15;;;;;;;10.07;100.00;96957.41;5058118;28;20131;-59
2024/02/07 11:03:09;;;;;;;109.38;98.15;;;;;;;10.86;100.00;96957.63;5060211;28;20025;-60
2024/02/07 11:05:35;;;;;;;191.63;170.98;;;;;;;10.65;100.00;96951.97;5054463;28;20107;-60
2024/02/07 11:08:01;;;;;;;160.63;123.47;;;;;;;10.50;100.00;96954.91;5058826;28;20040;-59
2024/02/07 11:10:28;;;;;;;97.03;86.85;;;;;;;10.81;100.00;96944.72;5058002;28;20420;-60
2024/02/07 11:12:55;;;;;;;170.15;150.90;;;;;;;11.17;100.00;96943.09;5058178;28;20097;-60
2024/02/07 11:15:21;;;;;;;86.78;77.97;;;;;;;10.72;100.00;96938.88;5059267;28;20119;-59
2024/02/07 11:17:47;;;;;;;62.47;24.45;;;;;;;10.78;100.00;96939.59;5058128;28;20430;-59
2024/02/07 11:20:12;;;;;;;45.22;15.75;;;;;;;11.00;100.00;96939.13;5059190;28;20473;-59
2024/02/07 11:22:42;;;;;;;77.00;67.47;;;;;;;11.39;100.00;96930.44;5059440;28;20031;-60
2024/02/07 11:25:10;;;;;;;198.75;178.10;;;;;;;11.53;100.00;96932.72;5057393;28;20605;-59
2024/02/07 11:27:40;;;;;;;86.65;60.90;;;;;;;11.91;100.00;96932.63;5059492;28;20115;-59
2024/02/07 11:30:08;;;;;;;235.38;206.10;;;;;;;11.58;100.00;96930.84;5057205;28;20016;-60
2024/02/07 11:32:35;;;;;;;144.27;129.13;;;;;;;11.65;100.00;96920.31;5055612;28;20121;-60
2024/02/07 11:35:01;;;;;;;76.47;35.03;;;;;;;11.17;100.00;96922.28;5057524;28;20032;-60
2024/02/07 11:37:34;;;;;;;168.57;124.03;;;;;;;11.61;100.00;96923.88;5057355;28;20066;-59
2024/02/07 11:40:05;;;;;;;98.72;53.83;;;;;;;11.84;100.00;96915.47;5055251;28;20028;-60
2024/02/07 11:42:35;;;;;;;60.92;52.50;;;;;;;11.14;100.00;96911.94;5059922;28;20041;-60
2024/02/07 11:45:03;;;;;;;71.07;14.98;;;;;;;11.50;100.00;96913.72;5057331;28;20115;-59
2024/02/07 11:47:32;;;;;;;142.77;121.13;;;;;;;11.44;100.00;96906.91;5057472;28;20060;-58
2024/02/07 11:50:02;;;;;;;90.25;63.00;;;;;;;11.11;100.00;96920.69;5058208;28;20024;-59
2024/02/07 11:52:35;;;;;;;274.25;246.00;;;;;;;11.63;100.00;96919.47;5057953;28;20032;-59
2024/02/07 11:55:07;;;;;;;115.38;77.47;;;;;;;11.59;100.00;96916.94;5055668;28;20085;-60
2024/02/07 11:57:33;;;;;;;;;;;;;;;10.91;100.00;96905.53;5039446;28;20542;-59
2024/02/07 12:00:08;;;;;;;110.10;72.40;;;;;;;11.25;100.00;96916.91;5038960;28;20328;-59
2024/02/07 12:02:37;;;;;;;239.82;216.27;;;;;;;10.86;100.00;96904.75;5036821;28;20041;-59
2024/02/07 12:05:05;;;;;;;103.38;69.95;;;;;;;11.56;100.00;96909.22;5038045;28;20437;-60
2024/02/07 12:07:31;;;;;;;52.55;32.63;;;;;;;11.75;100.00;96906.13;5037449;28;20429;-61